Time;durP1;ratioP1;P1;durP2;ratioP2;P2;SDS_P1;SDS_P2;PMS_P1;PMS_P2;Temp;Humidity;BMP_temperature;BMP_pressure;BME280_temperature;BME280_humidity;BME280_pressure;Samples;Min_cycle;Max_cycle;Signal;HPM_P1;HPM_P2
2022/10/25 00:00:38;;;;;;;6.18;1.73;;;13.60;99.90;;;;;;5094957;28;20032;-52
2022/10/25 00:03:05;;;;;;;6.80;1.80;;;13.60;99.90;;;;;;5094136;28;20026;-50
2022/10/25 00:05:31;;;;;;;8.52;2.10;;;13.50;99.90;;;;;;5092794;28;20072;-55
2022/10/25 00:07:56;;;;;;;5.93;2.85;;;13.50;99.90;;;;;;5093051;28;20117;-53
2022/10/25 00:10:22;;;;;;;5.15;1.80;;;13.50;99.90;;;;;;5094032;28;20024;-55
2022/10/25 00:12:47;;;;;;;19.15;10.75;;;13.50;99.90;;;;;;5093218;28;20107;-53
2022/10/25 00:15:14;;;;;;;12.60;4.13;;;13.40;99.90;;;;;;5094657;28;20028;-53
2022/10/25 00:17:40;;;;;;;14.45;9.32;;;13.50;99.90;;;;;;5094284;28;20132;-51
2022/10/25 00:20:06;;;;;;;5.18;1.90;;;13.40;99.90;;;;;;5094553;28;20028;-53
2022/10/25 00:22:32;;;;;;;2.65;1.67;;;13.50;99.90;;;;;;5094210;28;20089;-54
2022/10/25 00:24:57;;;;;;;3.20;1.63;;;13.40;99.90;;;;;;5094119;28;20072;-55
2022/10/25 00:27:23;;;;;;;5.22;1.30;;;13.40;99.90;;;;;;5093807;28;20105;-53
2022/10/25 00:29:50;;;;;;;4.40;1.65;;;13.40;99.90;;;;;;5093993;28;20386;-55
2022/10/25 00:32:15;;;;;;;5.25;1.75;;;13.40;99.90;;;;;;5095223;28;20494;-52
2022/10/25 00:34:41;;;;;;;2.67;1.65;;;13.40;99.90;;;;;;5102951;28;20028;-54
2022/10/25 00:37:06;;;;;;;4.53;1.50;;;13.40;99.90;;;;;;5093950;28;20031;-55
2022/10/25 00:39:32;;;;;;;5.63;1.50;;;13.30;99.90;;;;;;5093637;28;20077;-53
2022/10/25 00:41:57;;;;;;;4.78;1.80;;;13.30;99.90;;;;;;5094363;28;20024;-55
2022/10/25 00:44:35;;;;;;;4.82;1.80;;;13.20;99.90;;;;;;5094024;28;20078;-56
2022/10/25 00:47:08;;;;;;;4.63;1.30;;;13.20;99.90;;;;;;5094078;28;20035;-53
2022/10/25 00:49:34;;;;;;;8.35;1.80;;;13.20;99.90;;;;;;5093871;28;20480;-54
2022/10/25 00:52:02;;;;;;;3.92;1.55;;;13.10;99.90;;;;;;5093692;28;20073;-56
2022/10/25 00:54:32;;;;;;;8.40;2.00;;;13.10;99.90;;;;;;5094076;28;20031;-51
2022/10/25 00:57:03;;;;;;;5.25;1.90;;;13.10;99.90;;;;;;5093559;28;20031;-55
2022/10/25 00:59:30;;;;;;;4.25;1.90;;;13.10;99.90;;;;;;5093952;28;20065;-53
2022/10/25 01:01:56;;;;;;;3.60;2.05;;;13.10;99.90;;;;;;5092969;28;20054;-49
2022/10/25 01:04:25;;;;;;;5.43;2.17;;;13.10;99.90;;;;;;5093512;28;20020;-53
2022/10/25 01:06:52;;;;;;;4.43;1.73;;;13.00;99.90;;;;;;5093260;28;20061;-56
2022/10/25 01:09:22;;;;;;;8.60;1.80;;;13.00;99.90;;;;;;5092072;28;20031;-53
2022/10/25 01:11:47;;;;;;;6.65;2.13;;;13.00;99.90;;;;;;5093486;28;20117;-52
2022/10/25 01:14:14;;;;;;;5.43;2.95;;;13.00;99.90;;;;;;5093570;28;20466;-53
2022/10/25 02:24:05;;;;;;;2.42;1.60;;;12.30;99.90;;;;;;5099369;28;20157;-54
2022/10/25 02:26:32;;;;;;;4.25;1.55;;;12.30;99.90;;;;;;5104560;28;20028;-50
2022/10/25 02:29:00;;;;;;;3.33;1.95;;;12.30;99.90;;;;;;5105042;28;20020;-53
2022/10/25 02:31:27;;;;;;;4.50;1.90;;;12.30;99.90;;;;;;5102896;28;20320;-49
2022/10/25 02:33:53;;;;;;;3.60;1.65;;;12.30;99.90;;;;;;5103130;28;20443;-53
2022/10/25 02:36:23;;;;;;;3.13;1.50;;;12.30;99.90;;;;;;5105269;28;20055;-54
2022/10/25 02:38:51;;;;;;;5.95;1.30;;;12.30;99.90;;;;;;5103017;28;20024;-51
2022/10/25 02:41:17;;;;;;;3.58;1.52;;;12.30;99.90;;;;;;5105336;28;20024;-50
2022/10/25 02:43:43;;;;;;;4.13;1.33;;;12.30;99.90;;;;;;5104006;28;20028;-47
2022/10/25 02:46:12;;;;;;;3.08;1.25;;;12.30;99.90;;;;;;5105430;28;20028;-46
2022/10/25 02:48:38;;;;;;;2.70;1.63;;;12.30;99.90;;;;;;5105617;28;20024;-52
2022/10/25 02:51:04;;;;;;;4.43;1.48;;;12.30;99.90;;;;;;5104468;28;20024;-47
2022/10/25 02:53:31;;;;;;;1.75;1.52;;;12.40;99.90;;;;;;5104299;28;20121;-52
2022/10/25 02:56:15;;;;;;;7.40;1.92;;;12.40;99.90;;;;;;5104999;28;20032;-51
2022/10/25 02:58:42;;;;;;;4.53;1.75;;;12.50;99.90;;;;;;5104466;28;20047;-46
2022/10/25 03:01:08;;;;;;;5.38;1.98;;;12.50;99.90;;;;;;5104813;28;20020;-48
2022/10/25 03:03:34;;;;;;;12.90;1.92;;;12.60;99.90;;;;;;5104222;28;20036;-53
2022/10/25 03:06:00;;;;;;;4.13;2.05;;;12.50;99.90;;;;;;5103686;28;20035;-55
2022/10/25 03:08:27;;;;;;;5.50;1.98;;;12.40;99.90;;;;;;5104463;28;20028;-55
2022/10/25 03:10:53;;;;;;;4.07;1.85;;;12.40;99.90;;;;;;5105751;28;20023;-47
2022/10/25 03:13:19;;;;;;;9.55;1.80;;;12.40;99.90;;;;;;5104365;28;20039;-52
2022/10/25 03:15:45;;;;;;;6.05;1.60;;;12.30;99.90;;;;;;5116054;22;20036;-49
2022/10/25 03:18:11;;;;;;;2.33;1.70;;;12.30;99.90;;;;;;5049582;28;20037;-48
2022/10/25 03:20:36;;;;;;;5.90;1.58;;;12.30;99.90;;;;;;5051059;28;20028;-46
2022/10/25 03:23:02;;;;;;;4.78;2.00;;;12.30;99.90;;;;;;5051163;28;20053;-51
2022/10/25 03:25:28;;;;;;;5.07;1.80;;;12.30;99.90;;;;;;5052880;28;20028;-48
2022/10/25 03:27:53;;;;;;;7.13;1.92;;;12.30;99.90;;;;;;5073778;28;20097;-48
2022/10/25 03:30:19;;;;;;;5.25;1.67;;;12.30;99.90;;;;;;5074739;28;20020;-47
2022/10/25 03:32:44;;;;;;;5.00;2.28;;;12.30;99.90;;;;;;5074238;28;20033;-48
2022/10/25 03:35:10;;;;;;;7.47;1.90;;;12.20;99.90;;;;;;5074520;28;20047;-50
2022/10/25 03:37:35;;;;;;;5.43;1.58;;;12.20;99.90;;;;;;5074276;28;20381;-50
2022/10/25 03:40:01;;;;;;;6.53;1.95;;;12.30;99.90;;;;;;5074514;28;20032;-47
2022/10/25 03:42:26;;;;;;;5.10;1.98;;;12.30;99.90;;;;;;5073689;28;20035;-48
2022/10/25 03:44:52;;;;;;;3.92;1.38;;;12.30;99.90;;;;;;5073957;28;20029;-52
2022/10/25 03:47:18;;;;;;;3.17;1.60;;;12.30;99.90;;;;;;5073926;28;20024;-50
2022/10/25 03:49:43;;;;;;;5.25;1.90;;;12.20;99.90;;;;;;5074045;28;20387;-49
2022/10/25 03:52:10;;;;;;;5.28;1.73;;;12.20;99.90;;;;;;5073713;28;20036;-47
2022/10/25 03:54:36;;;;;;;7.78;1.92;;;12.20;99.90;;;;;;5074022;28;20438;-46
2022/10/25 03:57:02;;;;;;;8.95;1.77;;;12.20;99.90;;;;;;5074118;28;20016;-51
2022/10/25 03:59:27;;;;;;;6.00;2.20;;;12.20;99.90;;;;;;5074268;28;20033;-46
2022/10/25 04:01:53;;;;;;;8.02;1.88;;;12.20;99.90;;;;;;5073598;28;20025;-48
2022/10/25 04:04:19;;;;;;;4.50;1.75;;;12.10;99.90;;;;;;5074025;28;20090;-47
2022/10/25 04:06:44;;;;;;;9.30;1.70;;;12.20;99.90;;;;;;5072519;28;20055;-42
2022/10/25 04:09:10;;;;;;;6.03;2.10;;;12.10;99.90;;;;;;5073914;28;20032;-46
2022/10/25 04:11:35;;;;;;;3.97;1.88;;;12.10;99.90;;;;;;5073892;28;20091;-49
2022/10/25 04:14:01;;;;;;;5.53;3.40;;;12.00;99.90;;;;;;5073649;28;20029;-50
2022/10/25 04:16:27;;;;;;;10.98;2.20;;;12.00;99.90;;;;;;5073787;28;20036;-49
2022/10/25 04:18:52;;;;;;;6.32;1.92;;;12.00;99.90;;;;;;5073900;28;20095;-44
2022/10/25 04:21:19;;;;;;;10.13;2.38;;;12.00;99.90;;;;;;5073819;28;20037;-48
2022/10/25 04:23:44;;;;;;;5.93;2.10;;;12.00;99.90;;;;;;5073301;28;20082;-49
2022/10/25 04:26:13;;;;;;;10.82;2.35;;;12.00;99.90;;;;;;5072908;28;20029;-50
2022/10/25 04:28:38;;;;;;;8.25;2.45;;;12.00;99.90;;;;;;5073704;28;20072;-50
2022/10/25 04:31:04;;;;;;;3.83;3.15;;;12.00;99.90;;;;;;5073514;28;20058;-48
2022/10/25 04:33:29;;;;;;;2.67;1.75;;;12.10;99.90;;;;;;5073179;28;20043;-43
2022/10/25 04:35:55;;;;;;;9.80;2.72;;;12.10;99.90;;;;;;5073815;28;20077;-50
2022/10/25 04:38:22;;;;;;;9.32;2.50;;;12.10;99.90;;;;;;5072734;28;20033;-46
2022/10/25 04:40:55;;;;;;;6.72;2.38;;;12.10;99.90;;;;;;5072908;28;20488;-48
2022/10/25 04:43:22;;;;;;;10.27;2.33;;;12.10;99.90;;;;;;5073177;28;20036;-46
2022/10/25 04:45:47;;;;;;;5.75;2.38;;;12.00;99.90;;;;;;5072869;28;20069;-51
2022/10/25 04:48:13;;;;;;;7.18;1.90;;;12.00;99.90;;;;;;5072894;28;20016;-46
2022/10/25 04:50:38;;;;;;;8.82;2.58;;;12.00;99.90;;;;;;5073176;28;20095;-45
2022/10/25 04:53:04;;;;;;;5.47;2.25;;;11.90;99.90;;;;;;5072583;28;20027;-46
2022/10/25 04:55:30;;;;;;;6.55;2.38;;;11.90;99.90;;;;;;5072131;28;20023;-52
2022/10/25 04:57:56;;;;;;;7.57;2.70;;;11.90;99.90;;;;;;5072985;28;20082;-50
2022/10/25 05:00:22;;;;;;;3.85;1.90;;;11.80;99.90;;;;;;5073349;28;20391;-44
2022/10/25 05:02:53;;;;;;;7.05;2.40;;;11.80;99.90;;;;;;5072845;28;20043;-49
2022/10/25 05:05:20;;;;;;;7.72;3.05;;;11.90;99.90;;;;;;5071489;28;20074;-53
2022/10/25 05:07:46;;;;;;;10.65;2.63;;;11.90;99.90;;;;;;5072038;28;20112;-49
2022/10/25 05:10:11;;;;;;;7.57;2.42;;;11.90;99.90;;;;;;5071724;28;20108;-50
2022/10/25 05:12:37;;;;;;;8.48;2.47;;;11.80;99.90;;;;;;5071924;28;20025;-45
2022/10/25 05:15:03;;;;;;;7.80;3.25;;;11.80;99.90;;;;;;5071786;28;20044;-46
2022/10/25 05:17:29;;;;;;;5.10;2.33;;;11.80;99.90;;;;;;5072604;28;20031;-47
2022/10/25 05:19:54;;;;;;;7.97;2.90;;;11.80;99.90;;;;;;5072614;28;20096;-43
2022/10/25 05:22:20;;;;;;;12.23;2.70;;;11.80;99.90;;;;;;5072193;28;20099;-47
2022/10/25 05:24:45;;;;;;;11.55;3.10;;;11.80;99.90;;;;;;5072606;28;20031;-47
2022/10/25 05:27:11;;;;;;;6.13;2.30;;;11.70;99.90;;;;;;5072540;28;20021;-48
2022/10/25 05:29:36;;;;;;;3.88;2.40;;;11.70;99.90;;;;;;5072750;28;20028;-44
2022/10/25 05:32:02;;;;;;;5.45;2.72;;;11.80;99.90;;;;;;5072048;28;20036;-42
2022/10/25 05:34:28;;;;;;;12.95;2.78;;;11.80;99.90;;;;;;5072305;28;20025;-44
2022/10/25 05:36:53;;;;;;;7.53;2.83;;;11.80;99.90;;;;;;5072569;28;20043;-49
2022/10/25 05:39:19;;;;;;;9.70;2.83;;;11.70;99.90;;;;;;5072629;28;20395;-45
2022/10/25 05:41:45;;;;;;;8.82;2.78;;;11.80;99.90;;;;;;5072944;28;20033;-43
2022/10/25 05:44:10;;;;;;;9.32;2.50;;;11.70;99.90;;;;;;5073754;28;20039;-48
2022/10/25 05:46:36;;;;;;;8.25;2.63;;;11.80;99.90;;;;;;5072445;28;20487;-45
2022/10/25 05:49:02;;;;;;;10.45;2.67;;;11.70;99.90;;;;;;5071288;28;20059;-48
2022/10/25 05:51:29;;;;;;;7.38;3.35;;;11.80;99.90;;;;;;5072232;28;20043;-44
2022/10/25 05:53:57;;;;;;;8.73;3.00;;;11.80;99.90;;;;;;5071914;28;20033;-45
2022/10/25 05:56:26;;;;;;;10.57;3.38;;;11.80;99.90;;;;;;5071615;28;20119;-48
2022/10/25 05:58:52;;;;;;;7.50;3.78;;;11.80;99.90;;;;;;5071569;28;20107;-45
2022/10/25 06:01:20;;;;;;;9.95;2.63;;;11.80;99.90;;;;;;5071488;28;20059;-46
2022/10/25 06:03:50;;;;;;;9.95;3.17;;;11.70;99.90;;;;;;5071285;28;20030;-43
2022/10/25 06:06:17;;;;;;;8.68;3.60;;;11.80;99.90;;;;;;5071653;28;20445;-45
2022/10/25 06:08:42;;;;;;;6.90;2.88;;;11.80;99.90;;;;;;5071699;28;20047;-48
2022/10/25 06:11:11;;;;;;;8.75;2.83;;;11.80;99.90;;;;;;5071643;28;20481;-45
2022/10/25 06:13:37;;;;;;;9.43;2.92;;;11.80;99.90;;;;;;5070624;28;20028;-45
2022/10/25 06:16:06;;;;;;;5.78;2.72;;;11.90;99.90;;;;;;5071146;28;20111;-48
2022/10/25 06:18:33;;;;;;;7.93;3.05;;;11.90;99.90;;;;;;5071455;28;20162;-50
2022/10/25 06:21:07;;;;;;;3.38;2.08;;;12.00;99.90;;;;;;5071633;28;20028;-51
2022/10/25 06:23:35;;;;;;;7.25;2.97;;;12.00;99.90;;;;;;5070984;28;20032;-50
2022/10/25 06:26:03;;;;;;;5.30;2.83;;;12.10;99.90;;;;;;5071778;28;20039;-48
2022/10/25 06:28:29;;;;;;;7.55;3.20;;;12.10;99.90;;;;;;5071499;28;20475;-50
2022/10/25 06:31:02;;;;;;;9.45;2.60;;;12.10;99.90;;;;;;5071531;28;20117;-48
2022/10/25 06:33:29;;;;;;;10.65;3.50;;;12.20;99.90;;;;;;5071204;28;20021;-54
2022/10/25 06:35:59;;;;;;;10.07;3.13;;;12.20;99.90;;;;;;5070995;28;20039;-57
2022/10/25 06:38:25;;;;;;;6.22;2.83;;;12.30;99.90;;;;;;5071652;28;20107;-52
2022/10/25 06:40:56;;;;;;;6.00;2.45;;;12.30;99.90;;;;;;5071491;28;20036;-51
2022/10/25 06:43:22;;;;;;;7.32;2.30;;;12.40;99.90;;;;;;5071111;28;20025;-51
2022/10/25 06:45:47;;;;;;;12.63;3.10;;;12.40;99.90;;;;;;5071096;28;20036;-52
2022/10/25 06:48:13;;;;;;;6.50;2.38;;;12.40;99.90;;;;;;5071504;28;20100;-48
2022/10/25 06:50:38;;;;;;;8.18;2.75;;;12.40;99.90;;;;;;5072069;28;20028;-47
2022/10/25 06:53:04;;;;;;;6.45;2.65;;;12.40;99.90;;;;;;5071991;28;20364;-47
2022/10/25 06:55:29;;;;;;;11.20;2.83;;;12.40;99.90;;;;;;5071874;28;20037;-47
2022/10/25 06:57:56;;;;;;;9.65;3.80;;;12.40;99.90;;;;;;5071458;28;20082;-52
2022/10/25 07:00:21;;;;;;;4.60;2.83;;;12.40;99.90;;;;;;5073438;28;20035;-51
2022/10/25 07:02:54;;;;;;;8.63;3.03;;;12.40;99.90;;;;;;5075215;28;20112;-51
2022/10/25 07:05:19;;;;;;;6.85;2.92;;;12.40;99.90;;;;;;5074063;28;20025;-46
2022/10/25 07:07:45;;;;;;;10.50;2.70;;;12.40;99.90;;;;;;5073999;28;20135;-54
2022/10/25 07:10:10;;;;;;;8.13;2.88;;;12.50;99.90;;;;;;5075206;28;20025;-51
2022/10/25 07:12:36;;;;;;;5.30;2.53;;;12.50;99.90;;;;;;5075175;28;20021;-53
2022/10/25 07:15:03;;;;;;;7.97;2.78;;;12.60;99.90;;;;;;5074761;28;20023;-52
2022/10/25 07:17:28;;;;;;;5.43;2.20;;;12.60;99.90;;;;;;5074795;28;20083;-48
2022/10/25 07:19:54;;;;;;;16.83;3.58;;;12.70;99.90;;;;;;5075046;28;20476;-51
2022/10/25 07:22:19;;;;;;;19.08;3.53;;;12.70;99.90;;;;;;5073376;28;20031;-50
2022/10/25 07:24:45;;;;;;;12.00;3.15;;;12.80;99.90;;;;;;5074759;28;20028;-51
2022/10/25 07:27:10;;;;;;;13.43;3.53;;;12.90;99.90;;;;;;5074416;28;20029;-44
2022/10/25 07:29:36;;;;;;;9.45;3.20;;;12.90;99.90;;;;;;5074486;28;20024;-50
2022/10/25 07:32:01;;;;;;;7.07;3.30;;;13.00;99.90;;;;;;5074165;28;20025;-52
2022/10/25 07:34:27;;;;;;;9.02;2.70;;;13.00;99.90;;;;;;5074533;28;20020;-46
2022/10/25 07:36:52;;;;;;;6.28;2.80;;;13.00;99.90;;;;;;5074844;28;20024;-44
2022/10/25 07:39:18;;;;;;;10.57;3.15;;;13.10;99.90;;;;;;5074413;28;20028;-46
2022/10/25 07:41:44;;;;;;;10.13;3.08;;;13.20;99.90;;;;;;5073936;28;20025;-50
2022/10/25 07:44:09;;;;;;;8.20;3.35;;;13.30;99.90;;;;;;5074271;28;20491;-41
2022/10/25 07:46:34;;;;;;;5.32;2.47;;;13.50;99.90;;;;;;5072815;28;20105;-47
2022/10/25 07:49:00;;;;;;;8.00;2.45;;;13.50;99.90;;;;;;5074483;28;20078;-46
2022/10/25 07:51:26;;;;;;;9.20;3.15;;;13.70;99.90;;;;;;5074185;28;20078;-47
2022/10/25 07:53:52;;;;;;;8.88;2.70;;;13.80;99.90;;;;;;5074198;28;20032;-50
2022/10/25 07:56:19;;;;;;;10.05;2.70;;;13.80;99.90;;;;;;5072514;28;20063;-50
2022/10/25 07:58:44;;;;;;;6.43;2.90;;;13.90;99.90;;;;;;5074805;28;20025;-49
2022/10/25 08:01:12;;;;;;;8.10;2.80;;;13.90;99.90;;;;;;5074278;28;20035;-46
2022/10/25 08:03:37;;;;;;;14.52;3.38;;;13.90;99.90;;;;;;5074471;28;20079;-45
2022/10/25 08:06:03;;;;;;;8.07;2.80;;;13.90;99.90;;;;;;5074666;28;20029;-46
2022/10/25 08:08:29;;;;;;;10.13;3.70;;;13.90;99.90;;;;;;5074313;28;20019;-48
2022/10/25 08:10:55;;;;;;;10.48;3.65;;;13.90;99.90;;;;;;5073645;28;20048;-46
2022/10/25 08:13:21;;;;;;;8.95;2.70;;;14.00;99.90;;;;;;5073340;28;20016;-50
2022/10/25 08:15:55;;;;;;;6.10;2.95;;;14.00;99.90;;;;;;5074166;28;20117;-47
2022/10/25 08:18:21;;;;;;;8.65;2.75;;;14.20;99.90;;;;;;5074216;28;20124;-45
2022/10/25 08:20:47;;;;;;;12.68;3.38;;;14.20;99.90;;;;;;5074038;28;20028;-46
2022/10/25 08:23:13;;;;;;;9.23;3.10;;;14.40;99.90;;;;;;5074350;28;20031;-45
2022/10/25 08:25:38;;;;;;;6.15;2.67;;;14.50;99.90;;;;;;5074339;28;20024;-52
2022/10/25 08:28:04;;;;;;;11.43;3.00;;;14.60;99.90;;;;;;5074762;28;20024;-50
2022/10/25 08:30:29;;;;;;;12.55;2.70;;;14.80;99.90;;;;;;5076252;28;20031;-45
2022/10/25 08:32:55;;;;;;;17.27;3.15;;;14.90;99.90;;;;;;5075407;28;20519;-44
2022/10/25 08:35:20;;;;;;;15.40;2.95;;;14.90;99.90;;;;;;5073752;28;20098;-50
2022/10/25 08:37:46;;;;;;;12.18;2.50;;;14.90;99.90;;;;;;5073839;28;20035;-44
2022/10/25 08:40:22;;;;;;;8.35;3.10;;;14.90;99.90;;;;;;5073675;28;20028;-44
2022/10/25 08:42:57;;;;;;;8.70;2.33;;;15.00;99.90;;;;;;5073536;28;20483;-44
2022/10/25 08:45:51;;;;;;;8.75;2.35;;;15.00;99.90;;;;;;5073385;28;20021;-49
2022/10/25 08:48:21;;;;;;;4.18;2.33;;;15.00;99.90;;;;;;5073314;28;20348;-51
2022/10/25 08:50:52;;;;;;;10.32;2.72;;;15.10;99.90;;;;;;5073488;28;20051;-49
2022/10/25 08:53:41;;;;;;;10.20;2.10;;;15.20;99.90;;;;;;5073347;28;20127;-46
2022/10/25 08:56:12;;;;;;;7.03;3.60;;;15.30;99.90;;;;;;5073093;28;20036;-44
2022/10/25 08:58:51;;;;;;;10.77;3.08;;;15.40;99.90;;;;;;5073066;28;20547;-49
2022/10/25 09:01:27;;;;;;;8.30;2.80;;;15.40;99.90;;;;;;5071485;28;20477;-48
2022/10/25 09:03:53;;;;;;;14.85;2.88;;;15.40;99.90;;;;;;5071283;28;20032;-51
2022/10/25 09:06:47;;;;;;;7.38;2.83;;;15.50;99.90;;;;;;5071401;28;20047;-48
2022/10/25 09:09:43;;;;;;;14.40;5.82;;;15.50;99.90;;;;;;5072956;28;20013;-52
2022/10/25 09:12:36;;;;;;;7.50;3.15;;;15.60;99.90;;;;;;5072363;28;20021;-45
2022/10/25 09:15:31;;;;;;;11.30;2.60;;;15.60;99.90;;;;;;5073230;28;20399;-46
2022/10/25 09:17:56;;;;;;;6.40;2.00;;;15.70;99.90;;;;;;5086659;23;20110;-44
2022/10/25 09:20:22;;;;;;;11.82;3.10;;;15.60;99.90;;;;;;5074290;28;20239;-45
2022/10/25 09:22:55;;;;;;;11.68;3.10;;;15.70;99.90;;;;;;5074152;28;20024;-48
2022/10/25 09:25:32;;;;;;;12.73;2.30;;;15.80;99.90;;;;;;5076983;28;20039;-50
2022/10/25 09:28:02;;;;;;;8.27;2.78;;;15.80;99.90;;;;;;5085777;28;20424;-41
2022/10/25 09:30:34;;;;;;;8.38;2.80;;;16.00;99.90;;;;;;5094344;28;20020;-46
2022/10/25 09:33:08;;;;;;;12.32;2.35;;;16.10;99.90;;;;;;5093428;28;20048;-45
2022/10/25 09:35:40;;;;;;;9.73;2.17;;;16.30;99.90;;;;;;5093919;28;20023;-49
2022/10/25 09:38:13;;;;;;;9.70;2.85;;;16.60;99.90;;;;;;5093957;28;20028;-45
2022/10/25 09:40:51;;;;;;;7.63;2.10;;;16.70;99.90;;;;;;5092408;28;20024;-44
2022/10/25 09:43:22;;;;;;;6.65;1.98;;;16.70;99.90;;;;;;5093345;28;20398;-47
2022/10/25 09:45:53;;;;;;;11.63;2.20;;;16.70;99.90;;;;;;5093110;28;20383;-46
2022/10/25 09:48:53;;;;;;;7.18;2.30;;;16.60;99.90;;;;;;5094666;28;20020;-47
2022/10/25 09:51:26;;;;;;;10.02;2.15;;;16.50;99.90;;;;;;5094656;28;20440;-45
2022/10/25 09:53:53;;;;;;;6.70;1.48;;;16.40;99.90;;;;;;5094312;28;20020;-49
2022/10/25 09:56:19;;;;;;;13.25;6.50;;;16.40;99.90;;;;;;5094361;28;20031;-47
2022/10/25 09:58:46;;;;;;;24.15;12.93;;;16.50;99.90;;;;;;5093280;28;20036;-48
2022/10/25 10:01:20;;;;;;;32.28;15.07;;;16.70;99.90;;;;;;5092778;28;20020;-47
2022/10/25 10:03:45;;;;;;;7.15;2.47;;;16.80;99.90;;;;;;5092297;28;20103;-48
2022/10/25 10:06:27;;;;;;;5.88;1.60;;;16.80;99.90;;;;;;5092297;28;20111;-48
2022/10/25 10:08:58;;;;;;;2.72;1.50;;;16.80;99.90;;;;;;5092063;28;20024;-47
2022/10/25 10:11:24;;;;;;;2.97;1.42;;;16.70;99.90;;;;;;5092512;28;20085;-47
2022/10/25 10:13:55;;;;;;;11.23;2.05;;;16.80;99.90;;;;;;5093383;28;20059;-46
2022/10/25 10:16:30;;;;;;;5.25;1.70;;;16.70;99.90;;;;;;5092961;28;20031;-46
2022/10/25 10:19:18;;;;;;;2.95;1.23;;;16.70;99.90;;;;;;5092681;28;20035;-46
2022/10/25 10:21:58;;;;;;;3.20;1.10;;;16.60;99.90;;;;;;5092673;28;20035;-48
2022/10/25 10:24:35;;;;;;;2.00;1.20;;;16.60;99.90;;;;;;5092733;28;20081;-49
2022/10/25 10:27:08;;;;;;;4.57;1.98;;;16.50;99.90;;;;;;5092070;28;20090;-46
2022/10/25 10:29:37;;;;;;;6.68;1.67;;;16.60;99.90;;;;;;5092959;28;20028;-48
2022/10/25 10:32:34;;;;;;;2.35;1.20;;;16.50;99.90;;;;;;5092094;28;20020;-48
2022/10/25 10:35:05;;;;;;;8.07;2.80;;;16.50;99.90;;;;;;5092683;28;20051;-47
2022/10/25 10:37:32;;;;;;;6.03;1.67;;;16.50;99.90;;;;;;5093162;28;20024;-51
2022/10/25 10:40:07;;;;;;;3.40;1.45;;;16.60;99.90;;;;;;5094138;28;20016;-48
2022/10/25 10:42:36;;;;;;;3.75;1.30;;;16.60;99.90;;;;;;5093172;28;20031;-46
2022/10/25 10:45:14;;;;;;;2.47;1.13;;;16.60;99.90;;;;;;5093181;28;20023;-47
2022/10/25 10:47:48;;;;;;;7.38;1.52;;;16.60;99.90;;;;;;5092368;28;20503;-45
2022/10/25 10:50:19;;;;;;;7.50;1.70;;;16.80;99.90;;;;;;5092318;28;20027;-46
2022/10/25 10:52:47;;;;;;;5.55;1.38;;;17.00;99.90;;;;;;5092024;28;20095;-48
2022/10/25 10:55:18;;;;;;;18.30;12.10;;;17.10;99.90;;;;;;5091020;28;20411;-47
2022/10/25 10:57:44;;;;;;;14.30;7.97;;;17.20;99.90;;;;;;5092926;28;20468;-52
2022/10/25 11:00:30;;;;;;;8.52;1.80;;;17.30;99.90;;;;;;5092042;28;20479;-47
2022/10/25 11:02:56;;;;;;;8.27;1.50;;;17.20;99.90;;;;;;5091723;28;20079;-48
2022/10/25 11:05:31;;;;;;;8.32;2.10;;;17.20;99.90;;;;;;5092727;28;20153;-47
2022/10/25 11:08:02;;;;;;;3.70;1.20;;;17.10;99.90;;;;;;5092630;28;20024;-49
2022/10/25 11:10:33;;;;;;;7.22;1.13;;;17.00;99.90;;;;;;5093248;28;20793;-47
2022/10/25 11:13:18;;;;;;;7.30;1.48;;;17.00;99.90;;;;;;5093769;28;20521;-49
2022/10/25 11:16:02;;;;;;;;;;;17.00;99.90;;;;;;5094513;28;20028;-45
2022/10/25 11:18:37;;;;;;;7.25;1.60;;;17.10;99.90;;;;;;5094574;28;20416;-47
2022/10/25 11:21:36;;;;;;;4.97;1.73;;;17.20;99.90;;;;;;5092141;28;20024;-50
2022/10/25 11:24:13;;;;;;;6.18;1.58;;;17.20;99.90;;;;;;5095275;28;20345;-47
2022/10/25 11:26:49;;;;;;;5.07;1.67;;;17.30;99.90;;;;;;5095789;28;20024;-50
2022/10/25 11:29:24;;;;;;;5.85;1.60;;;17.40;99.90;;;;;;5095915;28;20042;-45
2022/10/25 11:32:27;;;;;;;5.10;1.60;;;17.50;99.90;;;;;;5092049;28;20024;-47
2022/10/25 11:35:04;;;;;;;3.47;1.40;;;17.60;99.90;;;;;;5092545;28;20428;-47
2022/10/25 11:37:38;;;;;;;6.20;1.58;;;17.60;99.90;;;;;;5091511;28;20028;-47
2022/10/25 11:40:29;;;;;;;7.10;1.40;;;17.60;99.90;;;;;;5095651;28;20028;-45
2022/10/25 11:43:13;;;;;;;5.57;1.92;;;17.60;99.90;;;;;;5097883;28;20043;-46
2022/10/25 11:45:45;;;;;;;4.97;1.67;;;17.60;99.90;;;;;;5096939;28;20024;-43
2022/10/25 11:48:11;;;;;;;10.05;1.75;;;17.50;99.90;;;;;;5098317;28;20051;-43
2022/10/25 11:50:48;;;;;;;5.90;1.50;;;17.50;99.90;;;;;;5097684;28;20379;-48
2022/10/25 11:53:19;;;;;;;5.10;1.98;;;17.50;99.90;;;;;;5096578;28;20026;-46
2022/10/25 11:55:56;;;;;;;3.95;1.70;;;17.40;99.90;;;;;;5096575;28;20032;-47
2022/10/25 11:58:39;;;;;;;6.40;1.65;;;17.40;99.90;;;;;;5096591;28;20020;-49
2022/10/25 12:01:51;;;;;;;2.83;1.75;;;17.60;99.90;;;;;;5097335;28;20084;-47
2022/10/25 12:04:55;;;;;;;2.55;1.92;;;17.70;99.90;;;;;;5097152;28;20076;-47
2022/10/25 12:07:39;;;;;;;3.45;1.60;;;17.70;99.90;;;;;;5074117;28;20392;-48
2022/10/25 12:10:23;;;;;;;4.57;1.85;;;17.90;99.90;;;;;;5097192;28;20096;-46
2022/10/25 12:13:12;;;;;;;4.90;1.95;;;18.00;99.90;;;;;;5096118;28;20051;-50
2022/10/25 12:15:47;;;;;;;5.15;1.50;;;18.00;99.90;;;;;;5096138;28;20054;-46
2022/10/25 12:18:24;;;;;;;6.55;1.95;;;18.00;99.90;;;;;;5096799;28;20028;-46
2022/10/25 12:20:51;;;;;;;4.95;1.63;;;17.90;99.90;;;;;;5096885;28;20115;-50
2022/10/25 12:23:19;;;;;;;7.32;1.85;;;17.80;99.90;;;;;;5095526;28;20055;-43
2022/10/25 12:25:50;;;;;;;5.40;1.90;;;17.70;99.90;;;;;;5095977;28;20020;-45
2022/10/25 12:28:42;;;;;;;3.85;1.63;;;17.70;99.90;;;;;;5096219;28;20012;-45
2022/10/25 12:31:30;;;;;;;6.22;1.48;;;17.60;99.90;;;;;;5096012;28;20395;-52
2022/10/25 12:34:34;;;;;;;3.53;1.50;;;17.60;99.90;;;;;;5095877;28;20388;-48
2022/10/25 12:37:14;;;;;;;4.13;1.50;;;17.50;99.90;;;;;;5094465;28;20123;-52
2022/10/25 12:39:42;;;;;;;4.90;1.20;;;17.50;99.90;;;;;;5096782;28;20115;-46
2022/10/25 12:42:16;;;;;;;7.10;1.45;;;17.50;99.90;;;;;;5096022;28;20027;-47
2022/10/25 12:45:06;;;;;;;3.23;1.33;;;17.40;99.90;;;;;;5097435;28;20052;-46
2022/10/25 12:47:53;;;;;;;5.18;1.45;;;17.50;99.90;;;;;;5099013;28;20028;-45
2022/10/25 12:50:44;;;;;;;3.95;1.58;;;17.40;99.90;;;;;;5099877;28;20027;-49
2022/10/25 12:53:34;;;;;;;4.80;1.38;;;17.40;99.90;;;;;;5094852;28;20024;-46
2022/10/25 12:56:12;;;;;;;9.07;1.48;;;17.50;99.90;;;;;;5096693;28;20355;-46
2022/10/25 12:58:40;;;;;;;6.25;1.67;;;17.50;99.90;;;;;;5095613;28;20024;-49
2022/10/25 13:01:11;;;;;;;5.10;1.50;;;17.50;99.90;;;;;;5094322;28;20059;-48
2022/10/25 13:03:49;;;;;;;2.97;1.23;;;17.60;99.90;;;;;;5096316;28;20387;-45
2022/10/25 13:06:27;;;;;;;3.70;1.55;;;17.60;99.90;;;;;;5096428;28;20024;-45
2022/10/25 13:08:58;;;;;;;6.30;1.73;;;17.50;99.90;;;;;;5097209;28;20020;-47
2022/10/25 13:11:39;;;;;;;6.90;2.25;;;17.60;99.90;;;;;;5097479;28;20039;-51
2022/10/25 13:14:17;;;;;;;3.17;1.95;;;17.50;99.90;;;;;;5095261;28;20028;-46
2022/10/25 13:16:43;;;;;;;4.18;1.60;;;17.50;99.90;;;;;;5096275;28;20028;-47
2022/10/25 13:19:23;;;;;;;5.53;1.65;;;17.40;99.90;;;;;;5097087;28;20070;-47
2022/10/25 13:21:52;;;;;;;5.28;1.77;;;17.50;99.90;;;;;;5097865;28;20039;-45
2022/10/25 13:24:40;;;;;;;4.15;1.48;;;17.40;99.90;;;;;;5097511;28;20032;-45
2022/10/25 13:27:12;;;;;;;3.70;1.65;;;17.40;99.90;;;;;;5096430;28;20028;-45
2022/10/25 13:30:01;;;;;;;6.47;1.50;;;17.40;99.90;;;;;;5096889;28;20024;-45
2022/10/25 13:32:32;;;;;;;3.33;2.03;;;17.40;99.90;;;;;;5095955;28;20082;-50
2022/10/25 13:34:58;;;;;;;5.45;1.30;;;17.50;99.90;;;;;;5097052;28;20051;-44
2022/10/25 13:37:35;;;;;;;5.75;1.40;;;17.60;99.90;;;;;;5096714;28;20032;-50
2022/10/25 13:40:16;;;;;;;12.35;7.90;;;17.60;99.90;;;;;;5097288;28;20526;-46
2022/10/25 13:42:42;;;;;;;9.30;4.47;;;17.70;99.90;;;;;;5097628;28;20081;-49
2022/10/25 13:45:26;;;;;;;4.38;1.48;;;17.70;99.90;;;;;;5096871;28;20028;-48
2022/10/25 13:47:54;;;;;;;3.60;1.45;;;17.70;99.90;;;;;;5096788;28;20024;-52
2022/10/25 13:50:35;;;;;;;4.47;1.02;;;17.60;99.90;;;;;;5096188;28;20020;-50
2022/10/25 13:53:11;;;;;;;8.95;1.27;;;17.60;99.90;;;;;;5096396;28;20028;-50
2022/10/25 13:55:43;;;;;;;5.93;0.88;;;17.60;99.90;;;;;;5095955;28;20024;-48
2022/10/25 13:58:27;;;;;;;4.90;1.20;;;17.60;99.90;;;;;;5094169;28;20032;-50
2022/10/25 14:00:56;;;;;;;2.50;0.90;;;17.60;99.90;;;;;;5093646;28;20027;-52
2022/10/25 14:03:47;;;;;;;2.65;0.90;;;17.70;99.90;;;;;;5095544;28;20020;-46
2022/10/25 14:06:25;;;;;;;6.55;1.30;;;17.70;99.90;;;;;;5096853;28;20088;-49
2022/10/25 14:08:59;;;;;;;2.58;0.90;;;17.80;99.90;;;;;;5096919;28;20016;-46
2022/10/25 14:11:31;;;;;;;1.95;1.00;;;17.80;99.90;;;;;;5097359;28;20521;-50